createdAt,value
2023-03-28T00:00:33.511Z,101957.03
2023-03-28T00:03:00.405Z,101962.44
2023-03-28T00:05:28.174Z,101963.16
2023-03-28T00:07:56.648Z,101968.59
2023-03-28T00:10:24.074Z,101980.16
2023-03-28T00:12:50.994Z,101985.47
2023-03-28T00:15:17.732Z,101983.75
2023-03-28T00:17:44.522Z,101989.94
2023-03-28T00:20:13.050Z,101994.47
2023-03-28T00:22:40.213Z,101989.16
2023-03-28T00:25:09.115Z,102001.59
2023-03-28T00:27:36.354Z,102001.50
2023-03-28T00:30:05.431Z,102004.28
2023-03-28T00:32:32.181Z,102007.81
2023-03-28T00:34:58.860Z,102002.53
2023-03-28T00:37:25.587Z,102009.69
2023-03-28T00:39:53.840Z,102012.44
2023-03-28T00:42:22.266Z,102024.00
2023-03-28T00:44:52.736Z,102027.66
2023-03-28T00:47:28.507Z,102023.19
2023-03-28T00:50:03.439Z,102034.78
2023-03-28T00:52:39.940Z,102037.38
2023-03-28T00:55:12.368Z,102033.88
2023-03-28T00:57:40.208Z,102028.53
2023-03-28T01:00:12.291Z,102042.81
2023-03-28T01:02:45.717Z,102046.41
2023-03-28T01:05:13.858Z,102049.09
2023-03-28T01:07:46.761Z,102047.34
2023-03-28T01:10:13.638Z,102048.25
2023-03-28T01:12:43.331Z,102046.50
2023-03-28T01:15:10.897Z,102048.28
2023-03-28T01:17:37.951Z,102058.09
2023-03-28T01:20:37.027Z,102054.56
2023-03-28T01:23:51.062Z,102058.16
2023-03-28T01:26:38.853Z,102063.50
2023-03-28T01:29:29.821Z,102060.91
2023-03-28T01:32:24.085Z,102074.19
2023-03-28T01:35:05.793Z,102085.78
2023-03-28T01:38:10.854Z,102083.13
2023-03-28T01:41:28.747Z,102084.88
2023-03-28T01:44:03.990Z,102088.41
2023-03-28T01:47:05.916Z,102088.50
2023-03-28T01:49:52.072Z,102087.66
2023-03-28T01:52:42.299Z,102093.84
2023-03-28T01:55:17.194Z,102090.28
2023-03-28T01:57:49.756Z,102089.31
2023-03-28T02:00:38.170Z,102091.16
2023-03-28T02:03:33.812Z,102106.19
2023-03-28T02:06:01.704Z,102103.53
2023-03-28T02:08:32.528Z,102100.88
2023-03-28T02:10:59.213Z,102098.22
2023-03-28T02:13:40.475Z,102097.41
2023-03-28T02:16:10.392Z,102098.25
2023-03-28T02:18:41.677Z,102103.66
2023-03-28T02:21:19.178Z,102107.25
2023-03-28T02:23:48.512Z,102104.59
2023-03-28T02:26:15.331Z,102103.75
2023-03-28T02:28:44.038Z,102101.94
2023-03-28T02:31:13.767Z,102106.41
2023-03-28T02:33:40.422Z,102097.59
2023-03-28T02:36:17.474Z,102108.25
2023-03-28T02:39:11.548Z,102106.50
2023-03-28T02:42:15.934Z,102111.81
2023-03-28T02:45:10.177Z,102119.84
2023-03-28T02:48:01.722Z,102118.97
2023-03-28T02:50:43.321Z,102123.41
2023-03-28T02:53:32.896Z,102119.81
2023-03-28T02:56:09.817Z,102125.16
2023-03-28T02:58:48.709Z,102129.63
2023-03-28T03:01:15.505Z,102129.66
2023-03-28T03:03:43.740Z,102125.25
2023-03-28T03:06:12.546Z,102130.56
2023-03-28T03:08:39.367Z,102127.00
2023-03-28T03:11:06.558Z,102130.56
2023-03-28T03:13:33.253Z,102129.66
2023-03-28T03:16:00.338Z,102136.81
2023-03-28T03:18:27.621Z,102139.44
2023-03-28T03:20:54.818Z,102138.59
2023-03-28T03:23:21.669Z,102143.94
2023-03-28T03:25:50.682Z,102145.75
2023-03-28T03:28:17.486Z,102137.75
2023-03-28T03:30:44.462Z,102143.06
2023-03-28T03:33:11.363Z,102143.06
2023-03-28T03:35:45.913Z,102146.63
2023-03-28T03:38:13.517Z,102145.75
2023-03-28T03:40:40.651Z,102148.41
2023-03-28T03:43:07.440Z,102148.44
2023-03-28T03:45:34.168Z,102142.22
2023-03-28T03:48:01.008Z,102144.03
2023-03-28T03:50:27.719Z,102149.34
2023-03-28T03:52:54.453Z,102146.66
2023-03-28T03:55:21.128Z,102150.25
2023-03-28T03:57:47.782Z,102146.66
2023-03-28T04:00:14.824Z,102153.78
2023-03-28T04:02:41.666Z,102150.25
2023-03-28T04:05:08.838Z,102152.00
2023-03-28T04:07:36.567Z,102147.56
2023-03-28T04:10:04.598Z,102144.03
2023-03-28T04:12:31.510Z,102149.38
2023-03-28T04:14:58.361Z,102147.59
2023-03-28T04:17:29.855Z,102152.91
2023-03-28T04:19:57.090Z,102153.78
2023-03-28T04:22:29.930Z,102152.91
2023-03-28T04:24:57.248Z,102150.28
2023-03-28T04:27:26.241Z,102152.03
2023-03-28T04:29:56.421Z,102144.94
2023-03-28T04:32:24.403Z,102153.81
2023-03-28T04:34:51.318Z,102158.22
2023-03-28T04:37:18.812Z,102160.00
2023-03-28T04:39:47.632Z,102154.69
2023-03-28T04:42:15.477Z,102157.34
2023-03-28T04:44:42.715Z,102168.84
2023-03-28T04:47:11.731Z,102174.19
2023-03-28T04:49:39.007Z,102165.28
2023-03-28T04:52:06.819Z,102173.25
2023-03-28T04:54:33.691Z,102180.34
2023-03-28T04:57:02.423Z,102175.91
2023-03-28T04:59:29.528Z,102171.50
2023-03-28T05:01:56.505Z,102173.28
2023-03-28T05:04:25.793Z,102173.28
2023-03-28T05:06:52.509Z,102166.19
2023-03-28T05:09:19.759Z,102169.75
2023-03-28T05:11:46.749Z,102175.06
2023-03-28T05:14:13.885Z,102167.97
2023-03-28T05:16:41.075Z,102168.88
2023-03-28T05:19:09.975Z,102174.22
2023-03-28T05:21:37.078Z,102178.59
2023-03-28T05:24:04.009Z,102170.66
2023-03-28T05:26:30.689Z,102179.50
2023-03-28T05:28:57.399Z,102170.63
2023-03-28T05:31:26.070Z,102176.84
2023-03-28T05:33:52.988Z,102180.41
2023-03-28T05:36:20.671Z,102173.31
2023-03-28T05:38:47.598Z,102174.19
2023-03-28T05:41:15.570Z,102175.09
2023-03-28T05:43:42.328Z,102180.44
2023-03-28T05:46:09.131Z,102168.88
2023-03-28T05:48:36.930Z,102176.88
2023-03-28T05:51:04.725Z,102178.63
2023-03-28T05:53:31.433Z,102169.75
2023-03-28T05:55:58.136Z,102176.84
2023-03-28T05:58:24.903Z,102175.97
2023-03-28T06:00:52.412Z,102171.50
2023-03-28T06:03:19.233Z,102159.91
2023-03-28T06:05:46.115Z,102160.78
2023-03-28T06:08:12.936Z,102156.31
2023-03-28T06:10:39.970Z,102153.63
2023-03-28T06:13:06.737Z,102149.03
2023-03-28T06:15:33.432Z,102115.69
2023-03-28T06:18:00.431Z,102101.25
2023-03-28T06:20:27.529Z,102093.78
2023-03-28T06:22:54.159Z,102096.56
2023-03-28T06:25:21.038Z,102087.72
2023-03-28T06:27:47.708Z,102103.53
2023-03-28T06:30:14.964Z,102112.63
2023-03-28T06:32:41.657Z,102137.00
2023-03-28T06:35:08.674Z,102150.59
2023-03-28T06:37:35.379Z,102155.97
2023-03-28T06:40:03.185Z,102166.94
2023-03-28T06:42:29.886Z,102186.84
2023-03-28T06:44:56.636Z,102193.13
2023-03-28T06:47:23.311Z,102196.50
2023-03-28T06:49:50.018Z,102212.47
2023-03-28T06:52:17.292Z,102212.81
2023-03-28T06:54:44.934Z,102222.22
2023-03-28T06:57:12.705Z,102225.91
2023-03-28T06:59:39.390Z,102236.91
2023-03-28T07:02:06.753Z,102244.22
2023-03-28T07:04:34.992Z,102237.97
2023-03-28T07:07:01.990Z,102247.72
2023-03-28T07:09:28.733Z,102243.94
2023-03-28T07:11:55.681Z,102249.16
2023-03-28T07:14:22.558Z,102262.56
2023-03-28T07:16:49.309Z,102255.03
2023-03-28T07:19:16.111Z,102257.44
2023-03-28T07:21:42.812Z,102259.16
2023-03-28T07:24:09.553Z,102255.44
2023-03-28T07:26:36.250Z,102273.94
2023-03-28T07:29:03.089Z,102274.78
2023-03-28T07:31:30.139Z,102287.97
2023-03-28T07:33:58.219Z,102290.34
2023-03-28T07:36:27.261Z,102290.88
2023-03-28T07:38:53.993Z,102295.13
2023-03-28T07:41:22.509Z,102306.84
2023-03-28T07:43:49.677Z,102311.91
2023-03-28T07:46:16.557Z,102323.16
2023-03-28T07:48:45.560Z,102338.44
2023-03-28T07:51:13.007Z,102339.22
2023-03-28T07:53:39.677Z,102338.81
2023-03-28T07:56:12.106Z,102351.66
2023-03-28T07:58:40.910Z,102363.41
2023-03-28T08:01:09.712Z,102364.72
2023-03-28T08:03:37.142Z,102369.16
2023-03-28T08:06:13.444Z,102373.28
2023-03-28T08:08:47.158Z,102377.31
2023-03-28T08:11:13.895Z,102372.44
2023-03-28T08:13:41.134Z,102383.25
2023-03-28T08:16:08.460Z,102384.44
2023-03-28T08:18:35.261Z,102391.88
2023-03-28T08:21:03.848Z,102404.97
2023-03-28T08:23:30.778Z,102412.03
2023-03-28T08:26:06.245Z,102419.38
2023-03-28T08:28:34.601Z,102425.66
2023-03-28T08:31:02.118Z,102426.47
2023-03-28T08:33:29.150Z,102437.66
2023-03-28T08:35:58.563Z,102447.28
2023-03-28T08:38:25.559Z,102455.47
2023-03-28T08:41:05.424Z,102455.38
2023-03-28T08:43:55.967Z,102451.13
2023-03-28T08:46:25.600Z,102457.72
2023-03-28T08:48:53.782Z,102461.31
2023-03-28T08:51:26.770Z,102458.22
2023-03-28T08:54:11.681Z,102465.25
2023-03-28T08:56:51.386Z,102469.84
2023-03-28T08:59:26.551Z,102471.97
2023-03-28T09:01:53.334Z,102466.81
2023-03-28T09:04:35.118Z,102462.50
2023-03-28T09:07:09.783Z,102464.94
2023-03-28T09:09:49.135Z,102446.69
2023-03-28T09:12:46.058Z,102437.88
2023-03-28T09:15:16.197Z,102432.56
2023-03-28T09:18:07.326Z,102432.97
2023-03-28T09:21:02.000Z,102429.19
2023-03-28T09:24:06.402Z,102432.88
2023-03-28T09:26:47.147Z,102417.91
2023-03-28T09:29:19.484Z,102395.94
2023-03-28T09:31:51.347Z,102374.31
2023-03-28T09:34:27.415Z,102396.97
2023-03-28T09:37:02.631Z,102395.50
2023-03-28T09:39:39.442Z,102374.31
2023-03-28T09:42:29.923Z,102390.09
2023-03-28T09:45:18.148Z,102384.50
2023-03-28T09:47:49.570Z,102375.56
2023-03-28T09:50:18.282Z,102368.09
2023-03-28T09:52:46.765Z,102375.38
2023-03-28T09:55:17.259Z,102357.84
2023-03-28T09:58:09.961Z,102357.19
2023-03-28T10:00:40.636Z,102371.81
2023-03-28T10:03:23.249Z,102364.56
2023-03-28T10:05:51.746Z,102362.75
2023-03-28T10:08:25.981Z,102379.19
2023-03-28T10:11:17.176Z,102370.38
2023-03-28T10:13:48.947Z,102350.56
2023-03-28T10:16:33.885Z,102330.44
2023-03-28T10:19:00.652Z,102328.94
2023-03-28T10:21:32.011Z,102329.22
2023-03-28T10:24:04.346Z,102329.00
2023-03-28T10:26:31.655Z,102334.75
2023-03-28T10:29:04.617Z,102332.25
2023-03-28T10:31:33.976Z,102317.63
2023-03-28T10:34:02.828Z,102320.50
2023-03-28T10:36:51.864Z,102348.03
2023-03-28T10:39:23.388Z,102344.47
2023-03-28T10:41:55.704Z,102336.78
2023-03-28T10:44:35.874Z,102320.22
2023-03-28T10:47:07.330Z,102329.16
2023-03-28T10:49:55.547Z,102315.84
2023-03-28T10:52:40.624Z,102338.50
2023-03-28T10:55:30.971Z,102331.91
2023-03-28T10:58:07.718Z,102324.00
2023-03-28T11:01:18.233Z,102321.06
2023-03-28T11:04:18.731Z,102337.81
2023-03-28T11:07:16.616Z,102325.19
2023-03-28T11:09:51.984Z,102353.50
2023-03-28T11:12:28.322Z,102348.97
2023-03-28T11:15:09.347Z,102354.88
2023-03-28T11:18:08.939Z,102373.38
2023-03-28T11:21:23.736Z,102383.81
2023-03-28T11:24:10.301Z,102362.88
2023-03-28T11:26:46.317Z,102372.97
2023-03-28T11:29:42.615Z,102379.00
2023-03-28T11:32:22.992Z,102382.00
2023-03-28T11:34:56.007Z,102380.56
2023-03-28T11:37:28.071Z,102381.28
2023-03-28T11:39:58.578Z,102401.25
2023-03-28T11:42:33.352Z,102396.66
2023-03-28T11:45:08.079Z,102389.56
2023-03-28T11:47:40.380Z,102392.91
2023-03-28T11:50:28.378Z,102386.53
2023-03-28T11:53:01.751Z,102415.31
2023-03-28T11:55:37.306Z,102418.25
2023-03-28T11:58:06.973Z,102427.47
2023-03-28T12:00:42.930Z,102411.06
2023-03-28T12:03:21.323Z,102389.03
2023-03-28T12:06:22.547Z,102387.56
2023-03-28T12:09:11.172Z,102389.56
2023-03-28T12:11:50.268Z,102400.75
2023-03-28T12:14:36.967Z,102407.22
2023-03-28T12:17:13.906Z,102413.09
2023-03-28T12:19:41.252Z,102434.44
2023-03-28T12:22:16.175Z,102447.50
2023-03-28T12:25:00.417Z,102457.22
2023-03-28T12:27:52.373Z,102447.66
2023-03-28T12:30:43.001Z,102441.00
2023-03-28T12:33:23.037Z,102451.28
2023-03-28T12:36:03.510Z,102483.28
2023-03-28T12:38:55.951Z,102500.81
2023-03-28T12:41:37.624Z,102492.53
2023-03-28T12:44:27.101Z,102506.25
2023-03-28T12:46:59.897Z,102511.94
2023-03-28T12:49:35.779Z,102511.00
2023-03-28T12:52:06.440Z,102514.94
2023-03-28T12:54:34.742Z,102511.31
2023-03-28T12:57:07.401Z,102512.50
2023-03-28T12:59:40.103Z,102507.34
2023-03-28T13:02:17.797Z,102501.44
2023-03-28T13:05:08.919Z,102497.03
2023-03-28T13:08:09.625Z,102490.59
2023-03-28T13:10:41.179Z,102481.53
2023-03-28T13:13:28.290Z,102482.25
2023-03-28T13:16:04.393Z,102484.66
2023-03-28T13:18:33.874Z,102480.56
2023-03-28T13:21:04.732Z,102470.81
2023-03-28T13:23:35.074Z,102472.31
2023-03-28T13:26:05.056Z,102471.63
2023-03-28T13:28:58.985Z,102475.09
2023-03-28T13:31:26.619Z,102468.97
2023-03-28T13:33:55.143Z,102474.34
2023-03-28T13:36:25.086Z,102472.00
2023-03-28T13:39:10.064Z,102464.44
2023-03-28T13:41:42.769Z,102460.53
2023-03-28T13:44:15.522Z,102448.53
2023-03-28T13:46:44.934Z,102423.56
2023-03-28T13:49:17.645Z,102407.72
2023-03-28T13:51:52.214Z,102411.41
2023-03-28T13:54:19.533Z,102408.06
2023-03-28T13:56:48.879Z,102397.88
2023-03-28T13:59:19.726Z,102395.81
2023-03-28T14:01:57.475Z,102393.31
2023-03-28T14:04:30.876Z,102379.38
2023-03-28T14:06:58.117Z,102369.16
2023-03-28T14:09:27.789Z,102365.47
2023-03-28T14:12:12.091Z,102374.44
2023-03-28T14:14:42.628Z,102371.41
2023-03-28T14:17:22.010Z,102366.09
2023-03-28T14:20:07.293Z,102358.31
2023-03-28T14:22:52.761Z,102358.47
2023-03-28T14:25:26.382Z,102347.75
2023-03-28T14:27:55.213Z,102339.81
2023-03-28T14:30:26.066Z,102340.13
2023-03-28T14:33:01.868Z,102344.44
2023-03-28T14:35:31.742Z,102340.22
2023-03-28T14:38:01.017Z,102341.38
2023-03-28T14:40:39.895Z,102335.34
2023-03-28T14:43:20.384Z,102326.63
2023-03-28T14:45:52.783Z,102322.31
2023-03-28T14:48:24.380Z,102318.72
2023-03-28T14:50:53.640Z,102309.94
2023-03-28T14:53:28.807Z,102304.56
2023-03-28T14:56:08.838Z,102292.06
2023-03-28T14:58:39.374Z,102293.34
2023-03-28T15:01:08.288Z,102292.97
2023-03-28T15:03:39.144Z,102288.06
2023-03-28T15:06:08.175Z,102277.09
2023-03-28T15:08:42.109Z,102275.72
2023-03-28T15:11:15.747Z,102275.38
2023-03-28T15:13:46.691Z,102263.13
2023-03-28T15:16:24.075Z,102257.50
2023-03-28T15:19:07.151Z,102258.72
2023-03-28T15:21:39.456Z,102242.47
2023-03-28T15:24:08.553Z,102241.28
2023-03-28T15:26:38.707Z,102240.47
2023-03-28T15:29:07.863Z,102236.91
2023-03-28T15:31:39.866Z,102239.38
2023-03-28T15:34:11.840Z,102221.56
2023-03-28T15:36:48.709Z,102209.69
2023-03-28T15:39:27.452Z,102212.34
2023-03-28T15:42:04.296Z,102195.09
2023-03-28T15:44:32.968Z,102185.69
2023-03-28T15:47:12.163Z,102165.59
2023-03-28T15:49:39.365Z,102173.59
2023-03-28T15:52:18.851Z,102153.84
2023-03-28T15:54:51.189Z,102126.88
2023-03-28T15:57:27.446Z,102133.47
2023-03-28T15:59:56.156Z,102131.63
2023-03-28T16:02:22.808Z,102101.97
2023-03-28T16:05:27.648Z,102107.63
2023-03-28T16:07:54.487Z,102088.53
2023-03-28T16:10:24.223Z,102081.44
2023-03-28T16:12:51.845Z,102087.88
2023-03-28T16:15:19.869Z,102095.50
2023-03-28T16:17:47.453Z,102099.25
2023-03-28T16:20:19.797Z,102105.84
2023-03-28T16:22:46.919Z,102120.50
2023-03-28T16:25:14.117Z,102125.91
2023-03-28T16:27:42.467Z,102121.56
2023-03-28T16:30:37.389Z,102135.91
2023-03-28T16:33:05.976Z,102145.06
2023-03-28T16:35:34.099Z,102150.63
2023-03-28T16:38:01.219Z,102164.16
2023-03-28T16:40:28.255Z,102163.25
2023-03-28T16:42:55.533Z,102174.97
2023-03-28T16:45:22.968Z,102173.31
2023-03-28T16:47:49.874Z,102177.84
2023-03-28T16:50:17.120Z,102191.16
2023-03-28T16:52:43.853Z,102188.75
2023-03-28T16:55:14.235Z,102193.50
2023-03-28T16:57:42.067Z,102201.81
2023-03-28T17:00:13.623Z,102206.53
2023-03-28T17:02:40.599Z,102215.59
2023-03-28T17:05:07.852Z,102218.47
2023-03-28T17:07:34.519Z,102223.13
2023-03-28T17:10:01.218Z,102232.09
2023-03-28T17:12:29.573Z,102235.00
2023-03-28T17:14:56.310Z,102239.63
2023-03-28T17:17:23.142Z,102246.81
2023-03-28T17:19:50.446Z,102235.22
2023-03-28T17:22:17.503Z,102245.25
2023-03-28T17:24:46.794Z,102251.34
2023-03-28T17:27:14.421Z,102245.34
2023-03-28T17:29:41.183Z,102251.66
2023-03-28T17:32:08.104Z,102251.00
2023-03-28T17:34:35.947Z,102261.91
2023-03-28T17:37:02.709Z,102270.84
2023-03-28T17:39:29.387Z,102263.97
2023-03-28T17:41:56.044Z,102260.50
2023-03-28T17:44:22.748Z,102275.00
2023-03-28T17:46:49.623Z,102276.06
2023-03-28T17:49:18.117Z,102272.47
2023-03-28T17:51:45.534Z,102264.47
2023-03-28T17:54:12.266Z,102262.78
2023-03-28T17:56:39.667Z,102263.78
2023-03-28T17:59:06.872Z,102270.22
2023-03-28T18:01:33.860Z,102272.13
2023-03-28T18:04:01.203Z,102274.06
2023-03-28T18:06:28.002Z,102270.72
2023-03-28T18:08:54.849Z,102270.88
2023-03-28T18:11:23.001Z,102266.34
2023-03-28T18:13:52.662Z,102263.84
2023-03-28T18:16:19.484Z,102273.78
2023-03-28T18:18:46.650Z,102271.34
2023-03-28T18:21:13.817Z,102270.66
2023-03-28T18:23:40.951Z,102274.53
2023-03-28T18:26:08.166Z,102261.13
2023-03-28T18:28:36.875Z,102269.22
2023-03-28T18:31:17.517Z,102262.06
2023-03-28T18:33:44.569Z,102254.91
2023-03-28T18:36:12.804Z,102253.13
2023-03-28T18:38:42.724Z,102253.16
2023-03-28T18:41:10.563Z,102254.06
2023-03-28T18:43:38.628Z,102251.41
2023-03-28T18:46:07.782Z,102255.00
2023-03-28T18:48:35.611Z,102253.16
2023-03-28T18:51:03.300Z,102248.88
2023-03-28T18:53:30.334Z,102245.28
2023-03-28T18:55:56.995Z,102246.50
2023-03-28T18:58:24.039Z,102250.22
2023-03-28T19:00:58.529Z,102250.22
2023-03-28T19:03:30.105Z,102241.44
2023-03-28T19:06:01.654Z,102246.06
2023-03-28T19:08:30.066Z,102235.38
2023-03-28T19:10:59.153Z,102241.81
2023-03-28T19:13:27.116Z,102234.84
2023-03-28T19:16:01.932Z,102228.50
2023-03-28T19:18:29.295Z,102225.94
2023-03-28T19:20:57.001Z,102224.19
2023-03-28T19:23:25.314Z,102222.34
2023-03-28T19:25:52.497Z,102214.25
2023-03-28T19:28:19.871Z,102217.63
2023-03-28T19:30:46.901Z,102220.22
2023-03-28T19:33:14.022Z,102209.34
2023-03-28T19:35:42.365Z,102213.88
2023-03-28T19:38:09.124Z,102208.66
2023-03-28T19:40:35.887Z,102204.22
2023-03-28T19:43:02.815Z,102196.72
2023-03-28T19:45:30.062Z,102212.88
2023-03-28T19:48:00.958Z,102202.16
2023-03-28T19:50:27.646Z,102204.97
2023-03-28T19:52:54.328Z,102197.72
2023-03-28T19:55:21.172Z,102198.63
2023-03-28T19:57:47.874Z,102196.88
2023-03-28T20:00:14.896Z,102195.09
2023-03-28T20:02:41.821Z,102190.50
2023-03-28T20:05:09.238Z,102186.69
2023-03-28T20:07:35.885Z,102182.88
2023-03-28T20:10:02.811Z,102182.75
2023-03-28T20:12:29.575Z,102184.59
2023-03-28T20:14:57.061Z,102172.94
2023-03-28T20:17:23.896Z,102174.47
2023-03-28T20:19:51.687Z,102171.84
2023-03-28T20:22:20.097Z,102167.94
2023-03-28T20:24:48.873Z,102167.22
2023-03-28T20:27:17.006Z,102165.34
2023-03-28T20:29:45.479Z,102159.13
2023-03-28T20:32:12.126Z,102160.63
2023-03-28T20:34:38.845Z,102156.25
2023-03-28T20:37:05.518Z,102149.09
2023-03-28T20:39:35.163Z,102142.63
2023-03-28T20:42:05.591Z,102141.75
2023-03-28T20:44:38.273Z,102136.97
2023-03-28T20:47:07.796Z,102128.16
2023-03-28T20:49:35.962Z,102128.78
2023-03-28T20:52:02.762Z,102123.41
2023-03-28T20:54:29.533Z,102114.47
2023-03-28T20:56:56.260Z,102108.25
2023-03-28T20:59:23.799Z,102112.63
2023-03-28T21:01:51.458Z,102106.31
2023-03-28T21:04:18.161Z,102112.34
2023-03-28T21:06:46.016Z,102097.31
2023-03-28T21:09:18.116Z,102099.41
2023-03-28T21:11:45.117Z,102087.22
2023-03-28T21:14:14.109Z,102066.91
2023-03-28T21:16:41.170Z,102055.91
2023-03-28T21:19:08.690Z,102043.19
2023-03-28T21:21:35.590Z,102044.94
2023-03-28T21:24:03.184Z,102042.16
2023-03-28T21:26:31.241Z,102041.25
2023-03-28T21:28:58.771Z,102032.63
2023-03-28T21:31:28.592Z,102041.66
2023-03-28T21:34:01.009Z,102035.84
2023-03-28T21:36:28.212Z,102028.06
2023-03-28T21:38:56.304Z,102028.78
2023-03-28T21:41:23.507Z,102022.66
2023-03-28T21:43:51.810Z,102041.00
2023-03-28T21:46:19.042Z,102043.81
2023-03-28T21:48:47.903Z,102041.19
2023-03-28T21:51:16.039Z,102038.75
2023-03-28T21:53:42.809Z,102031.22
2023-03-28T21:56:12.654Z,102029.19
2023-03-28T21:58:39.387Z,102026.31
2023-03-28T22:01:06.660Z,102023.31
2023-03-28T22:03:37.296Z,102023.38
2023-03-28T22:06:04.794Z,102019.59
2023-03-28T22:08:31.528Z,102025.81
2023-03-28T22:11:01.444Z,102026.44
2023-03-28T22:13:29.766Z,102016.84
2023-03-28T22:15:58.435Z,102020.69
2023-03-28T22:18:26.236Z,102038.41
2023-03-28T22:20:53.562Z,102034.81
2023-03-28T22:23:22.562Z,102037.88
2023-03-28T22:25:50.046Z,102054.22
2023-03-28T22:28:17.161Z,102048.63
2023-03-28T22:30:44.155Z,102049.03
2023-03-28T22:33:11.211Z,102046.72
2023-03-28T22:35:38.390Z,102051.44
2023-03-28T22:38:05.779Z,102037.88
2023-03-28T22:40:32.950Z,102037.69
2023-03-28T22:43:00.216Z,102045.88
2023-03-28T22:45:27.482Z,102043.00
2023-03-28T22:47:58.378Z,102045.78
2023-03-28T22:50:25.176Z,102032.53
2023-03-28T22:52:52.887Z,102032.25
2023-03-28T22:55:22.440Z,102033.88
2023-03-28T22:57:54.006Z,102030.59
2023-03-28T23:00:24.111Z,102035.88
2023-03-28T23:02:52.324Z,102027.41
2023-03-28T23:05:20.126Z,102027.03
2023-03-28T23:07:47.334Z,102027.03
2023-03-28T23:10:16.967Z,102025.66
2023-03-28T23:12:44.522Z,102029.41
2023-03-28T23:15:11.864Z,102030.25
2023-03-28T23:17:38.827Z,102019.63
2023-03-28T23:20:12.327Z,102016.94
2023-03-28T23:22:43.726Z,102017.38
2023-03-28T23:25:12.801Z,102015.59
2023-03-28T23:27:39.872Z,102024.53
2023-03-28T23:30:07.888Z,102016.03
2023-03-28T23:32:34.709Z,102012.16
2023-03-28T23:35:01.549Z,102014.47
2023-03-28T23:37:28.330Z,102019.81
2023-03-28T23:39:55.723Z,102006.34
2023-03-28T23:42:23.714Z,102008.06
2023-03-28T23:44:51.774Z,102000.16
2023-03-28T23:47:20.402Z,101999.50
2023-03-28T23:49:47.726Z,101995.25
2023-03-28T23:52:16.392Z,101994.88
2023-03-28T23:54:43.490Z,101990.06
2023-03-28T23:57:10.290Z,101995.06
2023-03-28T23:59:37.131Z,101988.44
